sensor_id;sensor_type;location;lat;lon;timestamp;P1;durP1;ratioP1;P2;durP2;ratioP2
20034;SDS011;10178;48.034;9.800;2024-02-26T00:02:23;3.83;;;2.50;;
20034;SDS011;10178;48.034;9.800;2024-02-26T00:04:49;2.38;;;1.90;;
20034;SDS011;10178;48.034;9.800;2024-02-26T00:07:15;2.58;;;2.05;;
20034;SDS011;10178;48.034;9.800;2024-02-26T00:09:41;1.65;;;1.23;;
20034;SDS011;10178;48.034;9.800;2024-02-26T00:12:07;1.45;;;1.33;;
20034;SDS011;10178;48.034;9.800;2024-02-26T00:14:33;1.63;;;1.45;;
20034;SDS011;10178;48.034;9.800;2024-02-26T00:16:59;1.90;;;1.52;;
20034;SDS011;10178;48.034;9.800;2024-02-26T00:19:24;1.30;;;1.20;;
20034;SDS011;10178;48.034;9.800;2024-02-26T00:21:50;1.50;;;1.40;;
20034;SDS011;10178;48.034;9.800;2024-02-26T00:24:16;1.20;;;1.08;;
20034;SDS011;10178;48.034;9.800;2024-02-26T00:26:41;3.42;;;1.30;;
20034;SDS011;10178;48.034;9.800;2024-02-26T00:29:07;1.95;;;1.27;;
20034;SDS011;10178;48.034;9.800;2024-02-26T00:31:32;3.10;;;1.65;;
20034;SDS011;10178;48.034;9.800;2024-02-26T00:33:58;1.55;;;1.42;;
20034;SDS011;10178;48.034;9.800;2024-02-26T00:36:24;1.55;;;1.30;;
20034;SDS011;10178;48.034;9.800;2024-02-26T00:38:49;2.22;;;1.33;;
20034;SDS011;10178;48.034;9.800;2024-02-26T00:41:18;2.42;;;1.70;;
20034;SDS011;10178;48.034;9.800;2024-02-26T00:43:44;2.80;;;1.40;;
20034;SDS011;10178;48.034;9.800;2024-02-26T00:46:10;1.38;;;1.27;;
20034;SDS011;10178;48.034;9.800;2024-02-26T00:48:35;1.92;;;1.42;;
20034;SDS011;10178;48.034;9.800;2024-02-26T00:51:02;1.60;;;1.50;;
20034;SDS011;10178;48.034;9.800;2024-02-26T00:53:30;1.88;;;1.48;;
20034;SDS011;10178;48.034;9.800;2024-02-26T00:55:56;1.70;;;1.33;;
20034;SDS011;10178;48.034;9.800;2024-02-26T00:58:24;1.77;;;1.40;;
20034;SDS011;10178;48.034;9.800;2024-02-26T01:00:50;2.13;;;1.50;;
20034;SDS011;10178;48.034;9.800;2024-02-26T01:03:16;2.85;;;1.65;;
20034;SDS011;10178;48.034;9.800;2024-02-26T01:05:42;4.30;;;1.58;;
20034;SDS011;10178;48.034;9.800;2024-02-26T01:08:08;2.60;;;1.70;;
20034;SDS011;10178;48.034;9.800;2024-02-26T01:10:34;1.88;;;1.42;;
20034;SDS011;10178;48.034;9.800;2024-02-26T01:13:00;1.90;;;1.70;;
20034;SDS011;10178;48.034;9.800;2024-02-26T01:15:26;2.03;;;1.77;;
20034;SDS011;10178;48.034;9.800;2024-02-26T01:17:51;3.20;;;1.75;;
20034;SDS011;10178;48.034;9.800;2024-02-26T01:20:17;3.05;;;1.77;;
20034;SDS011;10178;48.034;9.800;2024-02-26T01:22:43;2.40;;;1.30;;
20034;SDS011;10178;48.034;9.800;2024-02-26T01:25:09;3.30;;;2.00;;
20034;SDS011;10178;48.034;9.800;2024-02-26T01:27:36;2.88;;;1.88;;
20034;SDS011;10178;48.034;9.800;2024-02-26T01:30:05;2.22;;;1.60;;
20034;SDS011;10178;48.034;9.800;2024-02-26T01:32:31;3.50;;;1.83;;
20034;SDS011;10178;48.034;9.800;2024-02-26T01:34:57;2.30;;;1.70;;
20034;SDS011;10178;48.034;9.800;2024-02-26T01:37:23;2.08;;;1.63;;
20034;SDS011;10178;48.034;9.800;2024-02-26T01:39:48;2.05;;;1.65;;
20034;SDS011;10178;48.034;9.800;2024-02-26T01:42:14;3.63;;;1.88;;
20034;SDS011;10178;48.034;9.800;2024-02-26T01:44:40;2.00;;;1.80;;
20034;SDS011;10178;48.034;9.800;2024-02-26T01:47:07;2.92;;;1.77;;
20034;SDS011;10178;48.034;9.800;2024-02-26T01:49:35;2.33;;;1.60;;
20034;SDS011;10178;48.034;9.800;2024-02-26T01:52:01;2.10;;;1.88;;
20034;SDS011;10178;48.034;9.800;2024-02-26T01:54:29;3.35;;;1.80;;
20034;SDS011;10178;48.034;9.800;2024-02-26T01:56:55;2.83;;;1.80;;
20034;SDS011;10178;48.034;9.800;2024-02-26T01:59:22;2.83;;;1.92;;
20034;SDS011;10178;48.034;9.800;2024-02-26T02:01:49;2.85;;;2.00;;
20034;SDS011;10178;48.034;9.800;2024-02-26T02:04:19;2.03;;;1.63;;
20034;SDS011;10178;48.034;9.800;2024-02-26T02:06:45;1.80;;;1.63;;
20034;SDS011;10178;48.034;9.800;2024-02-26T02:09:11;2.92;;;1.83;;
20034;SDS011;10178;48.034;9.800;2024-02-26T02:11:37;3.28;;;1.60;;
20034;SDS011;10178;48.034;9.800;2024-02-26T02:14:03;3.05;;;2.15;;
20034;SDS011;10178;48.034;9.800;2024-02-26T02:16:28;2.75;;;1.90;;
20034;SDS011;10178;48.034;9.800;2024-02-26T02:18:54;2.58;;;2.15;;
20034;SDS011;10178;48.034;9.800;2024-02-26T02:21:20;3.38;;;2.05;;
20034;SDS011;10178;48.034;9.800;2024-02-26T02:23:45;2.28;;;1.90;;
20034;SDS011;10178;48.034;9.800;2024-02-26T02:26:12;1.85;;;1.65;;
20034;SDS011;10178;48.034;9.800;2024-02-26T02:28:39;2.03;;;1.77;;
20034;SDS011;10178;48.034;9.800;2024-02-26T02:31:05;2.17;;;1.80;;
20034;SDS011;10178;48.034;9.800;2024-02-26T02:33:31;4.07;;;2.20;;
20034;SDS011;10178;48.034;9.800;2024-02-26T02:35:58;2.88;;;1.90;;
20034;SDS011;10178;48.034;9.800;2024-02-26T02:38:24;1.70;;;1.48;;
20034;SDS011;10178;48.034;9.800;2024-02-26T02:40:51;8.35;;;1.88;;
20034;SDS011;10178;48.034;9.800;2024-02-26T02:43:17;2.17;;;1.70;;
20034;SDS011;10178;48.034;9.800;2024-02-26T02:45:43;2.60;;;1.85;;
20034;SDS011;10178;48.034;9.800;2024-02-26T02:48:08;2.58;;;1.98;;
20034;SDS011;10178;48.034;9.800;2024-02-26T02:50:35;5.53;;;2.00;;
20034;SDS011;10178;48.034;9.800;2024-02-26T02:53:01;2.25;;;1.90;;
20034;SDS011;10178;48.034;9.800;2024-02-26T02:55:27;3.13;;;2.00;;
20034;SDS011;10178;48.034;9.800;2024-02-26T02:57:53;2.38;;;1.90;;
20034;SDS011;10178;48.034;9.800;2024-02-26T03:00:18;3.72;;;2.30;;
20034;SDS011;10178;48.034;9.800;2024-02-26T03:02:44;3.80;;;2.05;;
20034;SDS011;10178;48.034;9.800;2024-02-26T03:05:11;3.33;;;1.92;;
20034;SDS011;10178;48.034;9.800;2024-02-26T03:07:37;2.65;;;1.83;;
20034;SDS011;10178;48.034;9.800;2024-02-26T03:10:02;3.63;;;2.00;;
20034;SDS011;10178;48.034;9.800;2024-02-26T03:12:29;1.88;;;1.77;;
20034;SDS011;10178;48.034;9.800;2024-02-26T03:14:55;2.72;;;2.13;;
20034;SDS011;10178;48.034;9.800;2024-02-26T03:17:21;3.30;;;2.17;;
20034;SDS011;10178;48.034;9.800;2024-02-26T03:19:49;3.70;;;2.03;;
20034;SDS011;10178;48.034;9.800;2024-02-26T03:22:18;3.30;;;1.92;;
20034;SDS011;10178;48.034;9.800;2024-02-26T03:24:44;2.75;;;2.20;;
20034;SDS011;10178;48.034;9.800;2024-02-26T03:27:09;4.07;;;2.15;;
20034;SDS011;10178;48.034;9.800;2024-02-26T03:29:35;2.95;;;1.85;;
20034;SDS011;10178;48.034;9.800;2024-02-26T03:32:02;3.00;;;2.10;;
20034;SDS011;10178;48.034;9.800;2024-02-26T03:34:28;2.60;;;1.92;;
20034;SDS011;10178;48.034;9.800;2024-02-26T03:36:55;3.53;;;2.25;;
20034;SDS011;10178;48.034;9.800;2024-02-26T03:39:21;2.72;;;2.00;;
20034;SDS011;10178;48.034;9.800;2024-02-26T03:41:47;2.53;;;1.85;;
20034;SDS011;10178;48.034;9.800;2024-02-26T03:44:13;4.57;;;2.58;;
20034;SDS011;10178;48.034;9.800;2024-02-26T03:46:39;3.83;;;2.50;;
20034;SDS011;10178;48.034;9.800;2024-02-26T03:49:04;3.07;;;2.40;;
20034;SDS011;10178;48.034;9.800;2024-02-26T03:51:30;2.78;;;2.25;;
20034;SDS011;10178;48.034;9.800;2024-02-26T03:53:56;2.03;;;1.83;;
20034;SDS011;10178;48.034;9.800;2024-02-26T03:56:23;3.88;;;1.95;;
20034;SDS011;10178;48.034;9.800;2024-02-26T03:58:49;3.67;;;2.40;;
20034;SDS011;10178;48.034;9.800;2024-02-26T04:01:14;3.65;;;2.15;;
20034;SDS011;10178;48.034;9.800;2024-02-26T04:03:40;2.95;;;2.10;;
20034;SDS011;10178;48.034;9.800;2024-02-26T04:06:08;3.77;;;2.37;;
20034;SDS011;10178;48.034;9.800;2024-02-26T04:08:35;4.18;;;2.50;;
20034;SDS011;10178;48.034;9.800;2024-02-26T04:11:01;4.13;;;2.25;;
20034;SDS011;10178;48.034;9.800;2024-02-26T04:13:32;3.65;;;2.20;;
20034;SDS011;10178;48.034;9.800;2024-02-26T04:16:00;3.92;;;2.40;;
20034;SDS011;10178;48.034;9.800;2024-02-26T04:18:27;3.33;;;2.65;;
20034;SDS011;10178;48.034;9.800;2024-02-26T04:20:53;3.15;;;2.30;;
20034;SDS011;10178;48.034;9.800;2024-02-26T04:23:19;3.80;;;2.70;;
20034;SDS011;10178;48.034;9.800;2024-02-26T04:25:45;4.03;;;2.47;;
20034;SDS011;10178;48.034;9.800;2024-02-26T04:28:10;3.30;;;2.20;;
20034;SDS011;10178;48.034;9.800;2024-02-26T04:30:37;3.47;;;2.50;;
20034;SDS011;10178;48.034;9.800;2024-02-26T04:33:03;4.68;;;2.63;;
20034;SDS011;10178;48.034;9.800;2024-02-26T04:35:29;2.78;;;2.00;;
20034;SDS011;10178;48.034;9.800;2024-02-26T04:37:54;3.63;;;2.25;;
20034;SDS011;10178;48.034;9.800;2024-02-26T04:40:20;3.22;;;2.38;;
20034;SDS011;10178;48.034;9.800;2024-02-26T04:42:46;3.63;;;2.40;;
20034;SDS011;10178;48.034;9.800;2024-02-26T04:45:12;5.50;;;2.40;;
20034;SDS011;10178;48.034;9.800;2024-02-26T04:47:37;2.92;;;2.20;;
20034;SDS011;10178;48.034;9.800;2024-02-26T04:50:03;2.65;;;2.05;;
20034;SDS011;10178;48.034;9.800;2024-02-26T04:52:29;3.65;;;2.45;;
20034;SDS011;10178;48.034;9.800;2024-02-26T04:54:55;9.97;;;4.60;;
20034;SDS011;10178;48.034;9.800;2024-02-26T04:57:21;3.40;;;2.83;;
20034;SDS011;10178;48.034;9.800;2024-02-26T04:59:47;5.13;;;2.75;;
20034;SDS011;10178;48.034;9.800;2024-02-26T05:02:13;4.30;;;2.93;;
20034;SDS011;10178;48.034;9.800;2024-02-26T05:04:39;5.33;;;2.90;;
20034;SDS011;10178;48.034;9.800;2024-02-26T05:07:04;9.88;;;3.95;;
20034;SDS011;10178;48.034;9.800;2024-02-26T05:09:30;6.40;;;3.30;;
20034;SDS011;10178;48.034;9.800;2024-02-26T05:11:56;4.53;;;2.85;;
20034;SDS011;10178;48.034;9.800;2024-02-26T05:14:22;6.50;;;2.88;;
20034;SDS011;10178;48.034;9.800;2024-02-26T05:16:48;7.78;;;3.85;;
20034;SDS011;10178;48.034;9.800;2024-02-26T05:19:13;6.53;;;3.30;;
20034;SDS011;10178;48.034;9.800;2024-02-26T05:21:39;5.10;;;3.13;;
20034;SDS011;10178;48.034;9.800;2024-02-26T05:24:05;5.25;;;3.13;;
20034;SDS011;10178;48.034;9.800;2024-02-26T05:26:31;6.33;;;2.90;;
20034;SDS011;10178;48.034;9.800;2024-02-26T05:28:57;5.70;;;2.90;;
20034;SDS011;10178;48.034;9.800;2024-02-26T05:31:24;5.60;;;2.63;;
20034;SDS011;10178;48.034;9.800;2024-02-26T05:33:51;5.47;;;2.97;;
20034;SDS011;10178;48.034;9.800;2024-02-26T05:36:22;6.45;;;2.80;;
20034;SDS011;10178;48.034;9.800;2024-02-26T05:38:49;4.88;;;3.08;;
20034;SDS011;10178;48.034;9.800;2024-02-26T05:41:15;4.07;;;2.55;;
20034;SDS011;10178;48.034;9.800;2024-02-26T05:43:41;4.15;;;2.70;;
20034;SDS011;10178;48.034;9.800;2024-02-26T05:46:07;4.22;;;2.75;;
20034;SDS011;10178;48.034;9.800;2024-02-26T05:48:33;4.53;;;2.53;;
20034;SDS011;10178;48.034;9.800;2024-02-26T05:50:59;4.38;;;2.72;;
20034;SDS011;10178;48.034;9.800;2024-02-26T05:53:25;6.30;;;2.63;;
20034;SDS011;10178;48.034;9.800;2024-02-26T05:55:50;3.97;;;2.85;;
20034;SDS011;10178;48.034;9.800;2024-02-26T05:58:16;3.53;;;2.67;;
20034;SDS011;10178;48.034;9.800;2024-02-26T06:00:41;5.20;;;2.90;;
20034;SDS011;10178;48.034;9.800;2024-02-26T06:03:07;4.38;;;2.70;;
20034;SDS011;10178;48.034;9.800;2024-02-26T06:05:33;4.05;;;2.40;;
20034;SDS011;10178;48.034;9.800;2024-02-26T06:07:58;4.03;;;2.78;;
20034;SDS011;10178;48.034;9.800;2024-02-26T06:10:24;4.25;;;2.67;;
20034;SDS011;10178;48.034;9.800;2024-02-26T06:12:50;4.53;;;2.63;;
20034;SDS011;10178;48.034;9.800;2024-02-26T06:15:15;4.10;;;2.33;;
20034;SDS011;10178;48.034;9.800;2024-02-26T06:17:41;4.35;;;2.40;;
20034;SDS011;10178;48.034;9.800;2024-02-26T06:20:07;4.45;;;2.35;;
20034;SDS011;10178;48.034;9.800;2024-02-26T06:22:36;4.22;;;2.42;;
20034;SDS011;10178;48.034;9.800;2024-02-26T06:25:02;3.95;;;2.53;;
20034;SDS011;10178;48.034;9.800;2024-02-26T06:27:28;5.28;;;2.85;;
20034;SDS011;10178;48.034;9.800;2024-02-26T06:29:53;3.75;;;2.25;;
20034;SDS011;10178;48.034;9.800;2024-02-26T06:32:19;5.72;;;2.70;;
20034;SDS011;10178;48.034;9.800;2024-02-26T06:34:45;4.10;;;2.60;;
20034;SDS011;10178;48.034;9.800;2024-02-26T06:37:10;4.15;;;2.50;;
20034;SDS011;10178;48.034;9.800;2024-02-26T06:39:36;3.03;;;2.35;;
20034;SDS011;10178;48.034;9.800;2024-02-26T06:42:03;3.63;;;2.17;;
20034;SDS011;10178;48.034;9.800;2024-02-26T06:44:29;2.67;;;2.40;;
20034;SDS011;10178;48.034;9.800;2024-02-26T06:47:00;4.38;;;2.42;;
20034;SDS011;10178;48.034;9.800;2024-02-26T06:49:26;4.03;;;2.40;;
20034;SDS011;10178;48.034;9.800;2024-02-26T06:51:53;3.83;;;2.28;;
20034;SDS011;10178;48.034;9.800;2024-02-26T06:54:18;5.20;;;2.35;;
20034;SDS011;10178;48.034;9.800;2024-02-26T06:56:44;4.03;;;2.17;;
20034;SDS011;10178;48.034;9.800;2024-02-26T06:59:10;2.70;;;2.10;;
20034;SDS011;10178;48.034;9.800;2024-02-26T07:01:35;3.08;;;2.25;;
20034;SDS011;10178;48.034;9.800;2024-02-26T07:04:01;2.72;;;1.98;;
20034;SDS011;10178;48.034;9.800;2024-02-26T07:06:27;4.00;;;2.28;;
20034;SDS011;10178;48.034;9.800;2024-02-26T07:08:53;4.30;;;2.40;;
20034;SDS011;10178;48.034;9.800;2024-02-26T07:11:19;3.35;;;2.38;;
20034;SDS011;10178;48.034;9.800;2024-02-26T07:13:45;2.40;;;2.00;;
20034;SDS011;10178;48.034;9.800;2024-02-26T07:16:11;2.23;;;2.03;;
20034;SDS011;10178;48.034;9.800;2024-02-26T07:18:37;6.53;;;2.13;;
20034;SDS011;10178;48.034;9.800;2024-02-26T07:21:04;3.42;;;2.30;;
20034;SDS011;10178;48.034;9.800;2024-02-26T07:23:31;3.28;;;2.33;;
20034;SDS011;10178;48.034;9.800;2024-02-26T07:25:57;6.88;;;2.50;;
20034;SDS011;10178;48.034;9.800;2024-02-26T07:28:23;3.08;;;2.10;;
20034;SDS011;10178;48.034;9.800;2024-02-26T07:30:49;4.43;;;2.53;;
20034;SDS011;10178;48.034;9.800;2024-02-26T07:33:15;3.05;;;2.55;;
20034;SDS011;10178;48.034;9.800;2024-02-26T07:35:40;6.38;;;2.85;;
20034;SDS011;10178;48.034;9.800;2024-02-26T07:38:06;2.78;;;2.03;;
20034;SDS011;10178;48.034;9.800;2024-02-26T07:40:32;6.80;;;2.67;;
20034;SDS011;10178;48.034;9.800;2024-02-26T07:42:57;3.17;;;2.17;;
20034;SDS011;10178;48.034;9.800;2024-02-26T07:45:23;3.80;;;2.10;;
20034;SDS011;10178;48.034;9.800;2024-02-26T07:47:49;3.72;;;2.40;;
20034;SDS011;10178;48.034;9.800;2024-02-26T07:50:16;3.53;;;2.75;;
20034;SDS011;10178;48.034;9.800;2024-02-26T07:52:42;3.53;;;2.58;;
20034;SDS011;10178;48.034;9.800;2024-02-26T07:55:09;4.07;;;2.70;;
20034;SDS011;10178;48.034;9.800;2024-02-26T07:57:34;5.47;;;3.05;;
20034;SDS011;10178;48.034;9.800;2024-02-26T08:00:00;4.93;;;3.10;;
20034;SDS011;10178;48.034;9.800;2024-02-26T08:02:32;4.10;;;2.80;;
20034;SDS011;10178;48.034;9.800;2024-02-26T08:04:59;4.18;;;2.75;;
20034;SDS011;10178;48.034;9.800;2024-02-26T08:07:24;4.43;;;3.10;;
20034;SDS011;10178;48.034;9.800;2024-02-26T08:09:50;4.20;;;2.80;;
20034;SDS011;10178;48.034;9.800;2024-02-26T08:12:15;4.65;;;3.20;;
20034;SDS011;10178;48.034;9.800;2024-02-26T08:14:41;3.58;;;3.22;;
20034;SDS011;10178;48.034;9.800;2024-02-26T08:17:08;4.40;;;3.42;;
20034;SDS011;10178;48.034;9.800;2024-02-26T08:19:34;5.47;;;3.50;;
20034;SDS011;10178;48.034;9.800;2024-02-26T08:22:00;5.72;;;3.88;;
20034;SDS011;10178;48.034;9.800;2024-02-26T08:24:26;5.60;;;4.15;;
20034;SDS011;10178;48.034;9.800;2024-02-26T08:26:52;5.82;;;4.53;;
20034;SDS011;10178;48.034;9.800;2024-02-26T08:29:18;4.93;;;3.67;;
20034;SDS011;10178;48.034;9.800;2024-02-26T08:31:44;5.82;;;4.00;;
20034;SDS011;10178;48.034;9.800;2024-02-26T08:34:09;3.97;;;3.30;;
20034;SDS011;10178;48.034;9.800;2024-02-26T08:36:35;5.32;;;3.72;;
20034;SDS011;10178;48.034;9.800;2024-02-26T08:39:01;8.23;;;4.07;;
20034;SDS011;10178;48.034;9.800;2024-02-26T08:41:27;5.95;;;3.38;;
20034;SDS011;10178;48.034;9.800;2024-02-26T08:43:53;6.05;;;3.50;;
20034;SDS011;10178;48.034;9.800;2024-02-26T08:46:19;6.00;;;3.83;;
20034;SDS011;10178;48.034;9.800;2024-02-26T08:48:45;5.93;;;3.72;;
20034;SDS011;10178;48.034;9.800;2024-02-26T08:51:11;4.95;;;3.72;;
20034;SDS011;10178;48.034;9.800;2024-02-26T08:53:37;4.53;;;3.58;;
20034;SDS011;10178;48.034;9.800;2024-02-26T08:56:03;7.82;;;4.28;;
20034;SDS011;10178;48.034;9.800;2024-02-26T08:58:30;6.30;;;3.90;;
20034;SDS011;10178;48.034;9.800;2024-02-26T09:00:55;5.75;;;4.13;;
20034;SDS011;10178;48.034;9.800;2024-02-26T09:03:21;4.78;;;3.80;;
20034;SDS011;10178;48.034;9.800;2024-02-26T09:05:47;8.55;;;4.00;;
20034;SDS011;10178;48.034;9.800;2024-02-26T09:08:13;7.97;;;4.57;;
20034;SDS011;10178;48.034;9.800;2024-02-26T09:10:38;7.45;;;4.22;;
20034;SDS011;10178;48.034;9.800;2024-02-26T09:13:04;7.03;;;4.77;;
20034;SDS011;10178;48.034;9.800;2024-02-26T09:15:30;5.47;;;4.28;;
20034;SDS011;10178;48.034;9.800;2024-02-26T09:17:56;5.75;;;4.40;;
20034;SDS011;10178;48.034;9.800;2024-02-26T09:20:22;6.63;;;4.53;;
20034;SDS011;10178;48.034;9.800;2024-02-26T09:22:48;5.68;;;4.50;;
20034;SDS011;10178;48.034;9.800;2024-02-26T09:25:15;5.75;;;3.95;;
20034;SDS011;10178;48.034;9.800;2024-02-26T09:27:42;5.10;;;3.90;;
20034;SDS011;10178;48.034;9.800;2024-02-26T09:30:09;7.25;;;4.75;;
20034;SDS011;10178;48.034;9.800;2024-02-26T09:32:38;5.43;;;4.20;;
20034;SDS011;10178;48.034;9.800;2024-02-26T09:35:08;8.40;;;4.38;;
20034;SDS011;10178;48.034;9.800;2024-02-26T09:37:33;10.75;;;5.32;;
20034;SDS011;10178;48.034;9.800;2024-02-26T09:40:01;10.10;;;5.20;;
20034;SDS011;10178;48.034;9.800;2024-02-26T09:42:28;8.52;;;5.13;;
20034;SDS011;10178;48.034;9.800;2024-02-26T09:44:56;7.47;;;5.37;;
20034;SDS011;10178;48.034;9.800;2024-02-26T09:47:26;6.78;;;4.68;;
20034;SDS011;10178;48.034;9.800;2024-02-26T09:49:56;8.77;;;5.13;;
20034;SDS011;10178;48.034;9.800;2024-02-26T09:52:22;5.90;;;4.80;;
20034;SDS011;10178;48.034;9.800;2024-02-26T09:54:50;7.53;;;4.60;;
20034;SDS011;10178;48.034;9.800;2024-02-26T09:57:15;10.57;;;6.20;;
20034;SDS011;10178;48.034;9.800;2024-02-26T09:59:42;9.30;;;6.57;;
20034;SDS011;10178;48.034;9.800;2024-02-26T10:02:11;9.07;;;6.43;;
20034;SDS011;10178;48.034;9.800;2024-02-26T10:04:41;8.88;;;6.20;;
20034;SDS011;10178;48.034;9.800;2024-02-26T10:07:12;8.75;;;6.25;;
20034;SDS011;10178;48.034;9.800;2024-02-26T10:09:39;10.45;;;7.00;;
20034;SDS011;10178;48.034;9.800;2024-02-26T10:12:06;11.38;;;5.93;;
20034;SDS011;10178;48.034;9.800;2024-02-26T10:14:37;8.65;;;6.43;;
20034;SDS011;10178;48.034;9.800;2024-02-26T10:17:02;8.95;;;6.60;;
20034;SDS011;10178;48.034;9.800;2024-02-26T10:19:31;11.30;;;6.28;;
20034;SDS011;10178;48.034;9.800;2024-02-26T10:21:57;9.82;;;6.43;;
20034;SDS011;10178;48.034;9.800;2024-02-26T10:24:33;9.43;;;5.95;;
20034;SDS011;10178;48.034;9.800;2024-02-26T10:27:04;7.97;;;5.35;;
20034;SDS011;10178;48.034;9.800;2024-02-26T10:29:30;9.43;;;6.47;;
20034;SDS011;10178;48.034;9.800;2024-02-26T10:31:56;11.40;;;6.35;;
20034;SDS011;10178;48.034;9.800;2024-02-26T10:34:22;9.75;;;6.30;;
20034;SDS011;10178;48.034;9.800;2024-02-26T10:36:48;9.40;;;6.75;;
20034;SDS011;10178;48.034;9.800;2024-02-26T10:39:14;8.82;;;6.60;;
20034;SDS011;10178;48.034;9.800;2024-02-26T10:41:42;8.43;;;6.30;;
20034;SDS011;10178;48.034;9.800;2024-02-26T10:44:10;9.15;;;6.38;;
20034;SDS011;10178;48.034;9.800;2024-02-26T10:46:37;8.75;;;6.22;;
20034;SDS011;10178;48.034;9.800;2024-02-26T10:49:05;9.38;;;6.20;;
20034;SDS011;10178;48.034;9.800;2024-02-26T10:51:32;10.27;;;6.85;;
20034;SDS011;10178;48.034;9.800;2024-02-26T10:54:02;9.50;;;6.40;;
20034;SDS011;10178;48.034;9.800;2024-02-26T10:56:33;9.80;;;6.47;;
20034;SDS011;10178;48.034;9.800;2024-02-26T10:59:00;7.53;;;6.22;;
20034;SDS011;10178;48.034;9.800;2024-02-26T11:01:27;9.27;;;6.18;;
20034;SDS011;10178;48.034;9.800;2024-02-26T11:03:57;10.40;;;5.60;;
20034;SDS011;10178;48.034;9.800;2024-02-26T11:06:23;9.00;;;6.18;;
20034;SDS011;10178;48.034;9.800;2024-02-26T11:08:51;7.70;;;6.03;;
20034;SDS011;10178;48.034;9.800;2024-02-26T11:11:19;9.13;;;5.78;;
20034;SDS011;10178;48.034;9.800;2024-02-26T11:13:49;12.88;;;6.80;;
20034;SDS011;10178;48.034;9.800;2024-02-26T11:16:20;11.05;;;6.57;;
20034;SDS011;10178;48.034;9.800;2024-02-26T11:18:47;10.20;;;6.40;;
20034;SDS011;10178;48.034;9.800;2024-02-26T11:21:16;8.52;;;6.28;;
20034;SDS011;10178;48.034;9.800;2024-02-26T11:23:52;9.27;;;6.28;;
20034;SDS011;10178;48.034;9.800;2024-02-26T11:26:19;10.30;;;5.93;;
20034;SDS011;10178;48.034;9.800;2024-02-26T11:28:46;7.95;;;5.90;;
20034;SDS011;10178;48.034;9.800;2024-02-26T11:31:13;8.38;;;5.68;;
20034;SDS011;10178;48.034;9.800;2024-02-26T11:33:39;8.77;;;5.80;;
20034;SDS011;10178;48.034;9.800;2024-02-26T11:36:09;7.20;;;5.30;;
20034;SDS011;10178;48.034;9.800;2024-02-26T11:38:36;8.65;;;5.63;;
20034;SDS011;10178;48.034;9.800;2024-02-26T11:41:03;7.43;;;5.53;;
20034;SDS011;10178;48.034;9.800;2024-02-26T11:46:25;10.02;;;5.20;;
20034;SDS011;10178;48.034;9.800;2024-02-26T11:49:01;6.93;;;4.90;;
20034;SDS011;10178;48.034;9.800;2024-02-26T11:51:32;6.75;;;4.68;;
20034;SDS011;10178;48.034;9.800;2024-02-26T11:53:59;7.10;;;4.45;;
20034;SDS011;10178;48.034;9.800;2024-02-26T11:56:25;9.70;;;5.45;;
20034;SDS011;10178;48.034;9.800;2024-02-26T11:59:01;6.20;;;4.55;;
20034;SDS011;10178;48.034;9.800;2024-02-26T12:04:07;6.22;;;4.70;;
20034;SDS011;10178;48.034;9.800;2024-02-26T12:06:41;7.32;;;4.30;;
20034;SDS011;10178;48.034;9.800;2024-02-26T12:09:13;7.53;;;4.90;;
20034;SDS011;10178;48.034;9.800;2024-02-26T12:11:55;7.43;;;4.53;;
20034;SDS011;10178;48.034;9.800;2024-02-26T12:14:24;5.70;;;4.38;;
20034;SDS011;10178;48.034;9.800;2024-02-26T12:16:51;6.40;;;4.55;;
20034;SDS011;10178;48.034;9.800;2024-02-26T12:19:17;6.57;;;4.35;;
20034;SDS011;10178;48.034;9.800;2024-02-26T12:21:43;6.85;;;4.72;;
20034;SDS011;10178;48.034;9.800;2024-02-26T12:24:39;6.47;;;4.88;;
20034;SDS011;10178;48.034;9.800;2024-02-26T12:27:05;7.30;;;4.57;;
20034;SDS011;10178;48.034;9.800;2024-02-26T12:29:31;8.38;;;5.10;;
20034;SDS011;10178;48.034;9.800;2024-02-26T12:31:57;7.05;;;4.82;;
20034;SDS011;10178;48.034;9.800;2024-02-26T12:34:23;5.68;;;4.22;;
20034;SDS011;10178;48.034;9.800;2024-02-26T12:36:49;7.90;;;4.70;;
20034;SDS011;10178;48.034;9.800;2024-02-26T12:39:14;8.10;;;5.20;;
20034;SDS011;10178;48.034;9.800;2024-02-26T12:41:40;9.73;;;4.90;;
20034;SDS011;10178;48.034;9.800;2024-02-26T12:44:07;8.82;;;5.18;;
20034;SDS011;10178;48.034;9.800;2024-02-26T12:46:33;8.88;;;5.28;;
20034;SDS011;10178;48.034;9.800;2024-02-26T12:48:59;6.80;;;4.63;;
20034;SDS011;10178;48.034;9.800;2024-02-26T12:51:25;6.63;;;4.68;;
20034;SDS011;10178;48.034;9.800;2024-02-26T12:53:52;6.72;;;4.05;;
20034;SDS011;10178;48.034;9.800;2024-02-26T12:56:32;6.25;;;4.60;;
20034;SDS011;10178;48.034;9.800;2024-02-26T12:58:58;10.10;;;6.20;;
20034;SDS011;10178;48.034;9.800;2024-02-26T13:01:24;6.57;;;4.43;;
20034;SDS011;10178;48.034;9.800;2024-02-26T13:03:51;5.65;;;4.13;;
20034;SDS011;10178;48.034;9.800;2024-02-26T13:06:18;5.47;;;4.15;;
20034;SDS011;10178;48.034;9.800;2024-02-26T13:08:45;5.13;;;3.92;;
20034;SDS011;10178;48.034;9.800;2024-02-26T13:11:11;4.70;;;3.50;;
20034;SDS011;10178;48.034;9.800;2024-02-26T13:13:37;5.18;;;3.72;;
20034;SDS011;10178;48.034;9.800;2024-02-26T13:16:09;4.30;;;2.42;;
20034;SDS011;10178;48.034;9.800;2024-02-26T13:18:48;3.55;;;2.80;;
20034;SDS011;10178;48.034;9.800;2024-02-26T13:21:14;5.57;;;3.55;;
20034;SDS011;10178;48.034;9.800;2024-02-26T13:23:41;4.38;;;3.20;;
20034;SDS011;10178;48.034;9.800;2024-02-26T13:26:07;4.55;;;3.20;;
20034;SDS011;10178;48.034;9.800;2024-02-26T13:29:00;4.30;;;3.15;;
20034;SDS011;10178;48.034;9.800;2024-02-26T13:31:28;3.88;;;1.98;;
20034;SDS011;10178;48.034;9.800;2024-02-26T13:33:54;3.15;;;2.28;;
20034;SDS011;10178;48.034;9.800;2024-02-26T13:36:21;3.33;;;2.25;;
20034;SDS011;10178;48.034;9.800;2024-02-26T13:38:51;4.25;;;3.10;;
20034;SDS011;10178;48.034;9.800;2024-02-26T13:41:20;4.93;;;2.40;;
20034;SDS011;10178;48.034;9.800;2024-02-26T13:43:46;4.18;;;2.15;;
20034;SDS011;10178;48.034;9.800;2024-02-26T13:46:12;2.60;;;2.40;;
20034;SDS011;10178;48.034;9.800;2024-02-26T13:48:40;3.83;;;2.80;;
20034;SDS011;10178;48.034;9.800;2024-02-26T13:51:06;3.38;;;2.00;;
20034;SDS011;10178;48.034;9.800;2024-02-26T13:53:32;2.72;;;2.25;;
20034;SDS011;10178;48.034;9.800;2024-02-26T13:55:57;3.83;;;2.95;;
20034;SDS011;10178;48.034;9.800;2024-02-26T13:58:26;2.78;;;2.40;;
20034;SDS011;10178;48.034;9.800;2024-02-26T14:00:52;6.50;;;2.75;;
20034;SDS011;10178;48.034;9.800;2024-02-26T14:03:22;3.22;;;2.42;;
20034;SDS011;10178;48.034;9.800;2024-02-26T14:05:47;4.30;;;2.75;;
20034;SDS011;10178;48.034;9.800;2024-02-26T14:08:13;3.55;;;2.38;;
20034;SDS011;10178;48.034;9.800;2024-02-26T14:10:45;3.38;;;2.60;;
20034;SDS011;10178;48.034;9.800;2024-02-26T14:13:11;4.38;;;2.28;;
20034;SDS011;10178;48.034;9.800;2024-02-26T14:15:37;6.10;;;2.60;;
20034;SDS011;10178;48.034;9.800;2024-02-26T14:18:04;2.80;;;2.28;;
20034;SDS011;10178;48.034;9.800;2024-02-26T14:20:32;2.50;;;2.30;;
20034;SDS011;10178;48.034;9.800;2024-02-26T14:22:58;8.70;;;3.17;;
20034;SDS011;10178;48.034;9.800;2024-02-26T14:25:24;3.95;;;2.65;;
20034;SDS011;10178;48.034;9.800;2024-02-26T14:27:49;6.38;;;2.58;;
20034;SDS011;10178;48.034;9.800;2024-02-26T14:30:17;3.85;;;2.50;;
20034;SDS011;10178;48.034;9.800;2024-02-26T14:33:10;3.63;;;2.63;;
20034;SDS011;10178;48.034;9.800;2024-02-26T14:35:40;5.20;;;2.75;;
20034;SDS011;10178;48.034;9.800;2024-02-26T14:38:13;3.38;;;2.38;;
20034;SDS011;10178;48.034;9.800;2024-02-26T14:40:49;2.80;;;2.30;;
20034;SDS011;10178;48.034;9.800;2024-02-26T14:43:31;3.67;;;2.75;;
20034;SDS011;10178;48.034;9.800;2024-02-26T14:46:01;4.53;;;3.17;;
20034;SDS011;10178;48.034;9.800;2024-02-26T14:48:29;7.93;;;3.00;;
20034;SDS011;10178;48.034;9.800;2024-02-26T14:50:55;5.07;;;2.70;;
20034;SDS011;10178;48.034;9.800;2024-02-26T14:53:21;5.07;;;2.70;;